sensor_id;sensor_type;location;lat;lon;timestamp;P1;durP1;ratioP1;P2;durP2;ratioP2
77544;SDS011;66672;50.328;7.610;2023-05-15T00:01:25;4.38;;;2.25;;
77544;SDS011;66672;50.328;7.610;2023-05-15T00:03:50;6.55;;;2.70;;
77544;SDS011;66672;50.328;7.610;2023-05-15T00:06:16;5.35;;;2.63;;
77544;SDS011;66672;50.328;7.610;2023-05-15T00:08:41;4.47;;;2.80;;
77544;SDS011;66672;50.328;7.610;2023-05-15T00:11:06;4.07;;;2.42;;
77544;SDS011;66672;50.328;7.610;2023-05-15T00:13:31;4.50;;;2.78;;
77544;SDS011;66672;50.328;7.610;2023-05-15T00:15:56;4.82;;;2.42;;
77544;SDS011;66672;50.328;7.610;2023-05-15T00:18:22;9.13;;;2.58;;
77544;SDS011;66672;50.328;7.610;2023-05-15T00:20:47;7.20;;;2.53;;
77544;SDS011;66672;50.328;7.610;2023-05-15T00:23:12;4.35;;;2.47;;
77544;SDS011;66672;50.328;7.610;2023-05-15T00:25:37;5.60;;;2.80;;
77544;SDS011;66672;50.328;7.610;2023-05-15T00:28:02;4.32;;;2.50;;
77544;SDS011;66672;50.328;7.610;2023-05-15T00:30:28;8.43;;;2.95;;
77544;SDS011;66672;50.328;7.610;2023-05-15T00:32:53;4.43;;;2.63;;
77544;SDS011;66672;50.328;7.610;2023-05-15T00:35:18;7.25;;;2.83;;
77544;SDS011;66672;50.328;7.610;2023-05-15T00:37:43;5.35;;;2.78;;
77544;SDS011;66672;50.328;7.610;2023-05-15T00:40:09;5.22;;;2.67;;
77544;SDS011;66672;50.328;7.610;2023-05-15T00:42:35;4.70;;;2.55;;
77544;SDS011;66672;50.328;7.610;2023-05-15T00:45:00;5.35;;;3.22;;
77544;SDS011;66672;50.328;7.610;2023-05-15T00:47:26;6.13;;;3.03;;
77544;SDS011;66672;50.328;7.610;2023-05-15T00:49:51;4.90;;;3.08;;
77544;SDS011;66672;50.328;7.610;2023-05-15T00:52:17;7.30;;;3.13;;
77544;SDS011;66672;50.328;7.610;2023-05-15T00:54:43;5.53;;;3.13;;
77544;SDS011;66672;50.328;7.610;2023-05-15T00:57:08;6.32;;;3.00;;
77544;SDS011;66672;50.328;7.610;2023-05-15T00:59:34;6.18;;;3.03;;
77544;SDS011;66672;50.328;7.610;2023-05-15T01:02:00;12.13;;;3.83;;
77544;SDS011;66672;50.328;7.610;2023-05-15T01:04:25;4.82;;;2.90;;
77544;SDS011;66672;50.328;7.610;2023-05-15T01:06:50;6.80;;;3.13;;
77544;SDS011;66672;50.328;7.610;2023-05-15T01:09:18;4.75;;;3.03;;
77544;SDS011;66672;50.328;7.610;2023-05-15T01:11:44;7.65;;;3.00;;
77544;SDS011;66672;50.328;7.610;2023-05-15T01:14:10;4.97;;;2.67;;
77544;SDS011;66672;50.328;7.610;2023-05-15T01:16:36;6.00;;;2.90;;
77544;SDS011;66672;50.328;7.610;2023-05-15T01:19:01;6.93;;;3.30;;
77544;SDS011;66672;50.328;7.610;2023-05-15T01:29:43;8.60;;;3.38;;
77544;SDS011;66672;50.328;7.610;2023-05-15T01:32:18;5.78;;;3.15;;
77544;SDS011;66672;50.328;7.610;2023-05-15T01:34:47;4.97;;;2.92;;
77544;SDS011;66672;50.328;7.610;2023-05-15T01:37:15;8.18;;;4.65;;
77544;SDS011;66672;50.328;7.610;2023-05-15T01:39:42;7.65;;;3.33;;
77544;SDS011;66672;50.328;7.610;2023-05-15T01:42:09;5.45;;;3.33;;
77544;SDS011;66672;50.328;7.610;2023-05-15T01:44:35;5.18;;;3.25;;
77544;SDS011;66672;50.328;7.610;2023-05-15T01:47:01;5.10;;;3.03;;
77544;SDS011;66672;50.328;7.610;2023-05-15T01:49:28;6.05;;;3.60;;
77544;SDS011;66672;50.328;7.610;2023-05-15T01:52:00;4.50;;;2.85;;
77544;SDS011;66672;50.328;7.610;2023-05-15T01:54:28;7.88;;;3.22;;
77544;SDS011;66672;50.328;7.610;2023-05-15T01:56:53;6.18;;;3.40;;
77544;SDS011;66672;50.328;7.610;2023-05-15T01:59:19;7.25;;;3.15;;
77544;SDS011;66672;50.328;7.610;2023-05-15T02:01:45;5.70;;;3.45;;
77544;SDS011;66672;50.328;7.610;2023-05-15T02:04:10;8.45;;;4.38;;
77544;SDS011;66672;50.328;7.610;2023-05-15T02:06:36;8.20;;;4.30;;
77544;SDS011;66672;50.328;7.610;2023-05-15T02:09:02;6.45;;;3.63;;
77544;SDS011;66672;50.328;7.610;2023-05-15T02:11:27;6.85;;;3.63;;
77544;SDS011;66672;50.328;7.610;2023-05-15T02:13:54;7.28;;;3.25;;
77544;SDS011;66672;50.328;7.610;2023-05-15T02:16:20;7.53;;;3.30;;
77544;SDS011;66672;50.328;7.610;2023-05-15T02:18:46;6.00;;;3.00;;
77544;SDS011;66672;50.328;7.610;2023-05-15T02:21:11;4.88;;;3.15;;
77544;SDS011;66672;50.328;7.610;2023-05-15T02:23:36;6.65;;;3.35;;
77544;SDS011;66672;50.328;7.610;2023-05-15T02:28:30;10.65;;;3.70;;
77544;SDS011;66672;50.328;7.610;2023-05-15T02:30:59;6.60;;;3.40;;
77544;SDS011;66672;50.328;7.610;2023-05-15T02:33:37;7.97;;;3.92;;
77544;SDS011;66672;50.328;7.610;2023-05-15T02:36:05;5.88;;;3.40;;
77544;SDS011;66672;50.328;7.610;2023-05-15T02:38:36;8.30;;;3.65;;
77544;SDS011;66672;50.328;7.610;2023-05-15T02:41:03;6.32;;;3.83;;
77544;SDS011;66672;50.328;7.610;2023-05-15T02:43:29;10.15;;;4.32;;
77544;SDS011;66672;50.328;7.610;2023-05-15T02:45:55;6.43;;;3.95;;
77544;SDS011;66672;50.328;7.610;2023-05-15T02:48:20;7.72;;;3.65;;
77544;SDS011;66672;50.328;7.610;2023-05-15T02:50:46;6.70;;;3.95;;
77544;SDS011;66672;50.328;7.610;2023-05-15T02:53:11;8.43;;;4.30;;
77544;SDS011;66672;50.328;7.610;2023-05-15T02:55:38;7.88;;;4.78;;
77544;SDS011;66672;50.328;7.610;2023-05-15T02:58:03;11.02;;;5.65;;
77544;SDS011;66672;50.328;7.610;2023-05-15T03:00:29;9.27;;;5.72;;
77544;SDS011;66672;50.328;7.610;2023-05-15T03:02:54;8.68;;;5.43;;
77544;SDS011;66672;50.328;7.610;2023-05-15T03:05:19;8.10;;;5.07;;
77544;SDS011;66672;50.328;7.610;2023-05-15T03:07:45;9.85;;;5.53;;
77544;SDS011;66672;50.328;7.610;2023-05-15T03:10:10;11.98;;;6.05;;
77544;SDS011;66672;50.328;7.610;2023-05-15T03:12:35;11.43;;;5.93;;
77544;SDS011;66672;50.328;7.610;2023-05-15T03:15:00;13.75;;;7.18;;
77544;SDS011;66672;50.328;7.610;2023-05-15T03:17:26;12.07;;;8.13;;
77544;SDS011;66672;50.328;7.610;2023-05-15T03:19:51;10.27;;;7.25;;
77544;SDS011;66672;50.328;7.610;2023-05-15T03:22:16;12.00;;;7.63;;
77544;SDS011;66672;50.328;7.610;2023-05-15T03:24:41;11.07;;;7.00;;
77544;SDS011;66672;50.328;7.610;2023-05-15T03:27:07;8.52;;;5.65;;
77544;SDS011;66672;50.328;7.610;2023-05-15T03:29:32;12.02;;;6.10;;
77544;SDS011;66672;50.328;7.610;2023-05-15T03:31:57;11.45;;;6.00;;
77544;SDS011;66672;50.328;7.610;2023-05-15T03:34:22;9.55;;;6.50;;
77544;SDS011;66672;50.328;7.610;2023-05-15T03:36:47;9.90;;;6.00;;
77544;SDS011;66672;50.328;7.610;2023-05-15T03:39:13;10.65;;;6.15;;
77544;SDS011;66672;50.328;7.610;2023-05-15T03:41:38;10.07;;;5.82;;
77544;SDS011;66672;50.328;7.610;2023-05-15T03:44:03;9.60;;;5.88;;
77544;SDS011;66672;50.328;7.610;2023-05-15T03:46:28;10.30;;;6.05;;
77544;SDS011;66672;50.328;7.610;2023-05-15T03:48:53;11.85;;;7.18;;
77544;SDS011;66672;50.328;7.610;2023-05-15T03:51:19;12.00;;;7.25;;
77544;SDS011;66672;50.328;7.610;2023-05-15T03:53:45;10.18;;;7.38;;
77544;SDS011;66672;50.328;7.610;2023-05-15T03:56:10;12.02;;;7.70;;
77544;SDS011;66672;50.328;7.610;2023-05-15T03:58:35;14.48;;;7.53;;
77544;SDS011;66672;50.328;7.610;2023-05-15T04:01:00;11.60;;;7.00;;
77544;SDS011;66672;50.328;7.610;2023-05-15T04:03:26;11.25;;;7.03;;
77544;SDS011;66672;50.328;7.610;2023-05-15T04:05:51;10.63;;;7.20;;
77544;SDS011;66672;50.328;7.610;2023-05-15T04:08:16;12.55;;;7.80;;
77544;SDS011;66672;50.328;7.610;2023-05-15T04:10:41;11.60;;;7.65;;
77544;SDS011;66672;50.328;7.610;2023-05-15T04:13:06;11.25;;;7.75;;
77544;SDS011;66672;50.328;7.610;2023-05-15T04:15:32;10.27;;;6.88;;
77544;SDS011;66672;50.328;7.610;2023-05-15T04:17:57;11.43;;;7.70;;
77544;SDS011;66672;50.328;7.610;2023-05-15T04:20:23;12.77;;;7.15;;
77544;SDS011;66672;50.328;7.610;2023-05-15T04:22:48;13.50;;;7.35;;
77544;SDS011;66672;50.328;7.610;2023-05-15T04:25:14;10.35;;;6.65;;
77544;SDS011;66672;50.328;7.610;2023-05-15T04:27:40;11.75;;;7.13;;
77544;SDS011;66672;50.328;7.610;2023-05-15T04:30:06;11.55;;;7.72;;
77544;SDS011;66672;50.328;7.610;2023-05-15T04:32:31;11.85;;;6.75;;
77544;SDS011;66672;50.328;7.610;2023-05-15T04:35:00;10.60;;;7.05;;
77544;SDS011;66672;50.328;7.610;2023-05-15T04:37:25;12.60;;;7.35;;
77544;SDS011;66672;50.328;7.610;2023-05-15T04:39:50;13.13;;;7.95;;
77544;SDS011;66672;50.328;7.610;2023-05-15T04:42:16;16.75;;;8.23;;
77544;SDS011;66672;50.328;7.610;2023-05-15T04:44:41;11.80;;;7.47;;
77544;SDS011;66672;50.328;7.610;2023-05-15T04:47:06;11.43;;;6.88;;
77544;SDS011;66672;50.328;7.610;2023-05-15T04:49:32;15.88;;;8.52;;
77544;SDS011;66672;50.328;7.610;2023-05-15T04:51:57;12.75;;;8.05;;
77544;SDS011;66672;50.328;7.610;2023-05-15T04:54:22;13.55;;;8.45;;
77544;SDS011;66672;50.328;7.610;2023-05-15T04:56:47;13.23;;;7.80;;
77544;SDS011;66672;50.328;7.610;2023-05-15T04:59:12;17.38;;;9.60;;
77544;SDS011;66672;50.328;7.610;2023-05-15T05:01:38;17.33;;;9.10;;
77544;SDS011;66672;50.328;7.610;2023-05-15T05:04:03;16.17;;;8.77;;
77544;SDS011;66672;50.328;7.610;2023-05-15T05:06:28;14.82;;;9.13;;
77544;SDS011;66672;50.328;7.610;2023-05-15T05:08:53;15.85;;;9.23;;
77544;SDS011;66672;50.328;7.610;2023-05-15T05:11:18;14.10;;;8.65;;
77544;SDS011;66672;50.328;7.610;2023-05-15T05:13:44;16.75;;;10.27;;
77544;SDS011;66672;50.328;7.610;2023-05-15T05:16:09;17.90;;;8.95;;
77544;SDS011;66672;50.328;7.610;2023-05-15T05:18:34;17.17;;;9.35;;
77544;SDS011;66672;50.328;7.610;2023-05-15T05:21:00;19.80;;;11.00;;
77544;SDS011;66672;50.328;7.610;2023-05-15T05:23:25;19.60;;;11.88;;
77544;SDS011;66672;50.328;7.610;2023-05-15T05:25:51;18.90;;;12.50;;
77544;SDS011;66672;50.328;7.610;2023-05-15T05:28:16;19.08;;;11.75;;
77544;SDS011;66672;50.328;7.610;2023-05-15T05:30:43;20.42;;;12.13;;
77544;SDS011;66672;50.328;7.610;2023-05-15T05:33:09;21.63;;;12.07;;
77544;SDS011;66672;50.328;7.610;2023-05-15T05:35:34;20.45;;;12.18;;
77544;SDS011;66672;50.328;7.610;2023-05-15T05:37:59;24.95;;;13.15;;
77544;SDS011;66672;50.328;7.610;2023-05-15T05:40:25;23.90;;;14.45;;
77544;SDS011;66672;50.328;7.610;2023-05-15T05:42:50;26.55;;;13.75;;
77544;SDS011;66672;50.328;7.610;2023-05-15T05:45:15;27.08;;;14.23;;
77544;SDS011;66672;50.328;7.610;2023-05-15T05:47:41;23.88;;;14.65;;
77544;SDS011;66672;50.328;7.610;2023-05-15T05:50:06;26.17;;;15.70;;
77544;SDS011;66672;50.328;7.610;2023-05-15T05:52:31;29.10;;;16.65;;
77544;SDS011;66672;50.328;7.610;2023-05-15T05:54:57;30.25;;;17.60;;
77544;SDS011;66672;50.328;7.610;2023-05-15T05:57:22;34.10;;;18.33;;
77544;SDS011;66672;50.328;7.610;2023-05-15T05:59:47;30.98;;;16.48;;
77544;SDS011;66672;50.328;7.610;2023-05-15T06:02:13;35.60;;;17.05;;
77544;SDS011;66672;50.328;7.610;2023-05-15T06:04:39;29.90;;;17.13;;
77544;SDS011;66672;50.328;7.610;2023-05-15T06:07:04;35.50;;;18.27;;
77544;SDS011;66672;50.328;7.610;2023-05-15T06:09:29;33.70;;;17.90;;
77544;SDS011;66672;50.328;7.610;2023-05-15T06:11:54;36.90;;;19.33;;
77544;SDS011;66672;50.328;7.610;2023-05-15T06:14:20;35.33;;;20.38;;
77544;SDS011;66672;50.328;7.610;2023-05-15T06:16:45;30.00;;;17.30;;
77544;SDS011;66672;50.328;7.610;2023-05-15T06:19:10;34.30;;;19.27;;
77544;SDS011;66672;50.328;7.610;2023-05-15T06:21:35;38.92;;;19.60;;
77544;SDS011;66672;50.328;7.610;2023-05-15T06:24:00;36.05;;;19.05;;
77544;SDS011;66672;50.328;7.610;2023-05-15T06:26:26;39.15;;;18.70;;
77544;SDS011;66672;50.328;7.610;2023-05-15T06:28:51;37.60;;;18.65;;
77544;SDS011;66672;50.328;7.610;2023-05-15T06:31:16;34.28;;;18.42;;
77544;SDS011;66672;50.328;7.610;2023-05-15T06:33:41;37.47;;;19.42;;
77544;SDS011;66672;50.328;7.610;2023-05-15T06:36:06;39.95;;;19.95;;
77544;SDS011;66672;50.328;7.610;2023-05-15T06:38:32;35.42;;;18.27;;
77544;SDS011;66672;50.328;7.610;2023-05-15T06:40:57;33.83;;;17.58;;
77544;SDS011;66672;50.328;7.610;2023-05-15T06:43:22;33.97;;;19.13;;
77544;SDS011;66672;50.328;7.610;2023-05-15T06:45:48;38.15;;;20.58;;
77544;SDS011;66672;50.328;7.610;2023-05-15T06:48:13;33.80;;;19.48;;
77544;SDS011;66672;50.328;7.610;2023-05-15T06:50:38;39.13;;;17.40;;
77544;SDS011;66672;50.328;7.610;2023-05-15T06:53:03;38.33;;;19.25;;
77544;SDS011;66672;50.328;7.610;2023-05-15T06:55:28;39.65;;;21.35;;
77544;SDS011;66672;50.328;7.610;2023-05-15T06:57:54;37.72;;;19.92;;
77544;SDS011;66672;50.328;7.610;2023-05-15T07:00:19;40.25;;;20.02;;
77544;SDS011;66672;50.328;7.610;2023-05-15T07:02:44;40.90;;;19.75;;
77544;SDS011;66672;50.328;7.610;2023-05-15T07:05:09;36.65;;;19.75;;
77544;SDS011;66672;50.328;7.610;2023-05-15T07:07:35;38.50;;;20.50;;
77544;SDS011;66672;50.328;7.610;2023-05-15T07:10:00;40.47;;;21.40;;
77544;SDS011;66672;50.328;7.610;2023-05-15T07:12:25;45.53;;;20.85;;
77544;SDS011;66672;50.328;7.610;2023-05-15T07:14:51;43.33;;;20.65;;
77544;SDS011;66672;50.328;7.610;2023-05-15T07:17:16;40.78;;;20.58;;
77544;SDS011;66672;50.328;7.610;2023-05-15T07:19:41;37.65;;;21.10;;
77544;SDS011;66672;50.328;7.610;2023-05-15T07:22:06;34.72;;;19.10;;
77544;SDS011;66672;50.328;7.610;2023-05-15T07:24:32;43.72;;;22.25;;
77544;SDS011;66672;50.328;7.610;2023-05-15T07:26:57;45.95;;;20.58;;
77544;SDS011;66672;50.328;7.610;2023-05-15T07:29:22;42.95;;;21.65;;
77544;SDS011;66672;50.328;7.610;2023-05-15T07:31:48;42.88;;;21.45;;
77544;SDS011;66672;50.328;7.610;2023-05-15T07:34:13;41.80;;;22.42;;
77544;SDS011;66672;50.328;7.610;2023-05-15T07:36:38;41.90;;;22.25;;
77544;SDS011;66672;50.328;7.610;2023-05-15T07:39:03;45.63;;;21.55;;
77544;SDS011;66672;50.328;7.610;2023-05-15T07:41:28;44.30;;;21.08;;
77544;SDS011;66672;50.328;7.610;2023-05-15T07:43:54;46.15;;;23.05;;
77544;SDS011;66672;50.328;7.610;2023-05-15T07:46:20;43.92;;;23.10;;
77544;SDS011;66672;50.328;7.610;2023-05-15T07:48:45;43.85;;;23.77;;
77544;SDS011;66672;50.328;7.610;2023-05-15T07:51:10;42.42;;;23.48;;
77544;SDS011;66672;50.328;7.610;2023-05-15T07:53:35;41.30;;;22.45;;
77544;SDS011;66672;50.328;7.610;2023-05-15T07:56:01;40.78;;;22.63;;
77544;SDS011;66672;50.328;7.610;2023-05-15T07:58:26;41.67;;;23.75;;
77544;SDS011;66672;50.328;7.610;2023-05-15T08:00:52;47.22;;;25.42;;
77544;SDS011;66672;50.328;7.610;2023-05-15T08:03:17;43.13;;;22.85;;
77544;SDS011;66672;50.328;7.610;2023-05-15T08:05:42;50.20;;;25.33;;
77544;SDS011;66672;50.328;7.610;2023-05-15T08:08:08;47.92;;;26.98;;
77544;SDS011;66672;50.328;7.610;2023-05-15T08:10:33;45.53;;;26.48;;
77544;SDS011;66672;50.328;7.610;2023-05-15T08:12:58;44.63;;;24.00;;
77544;SDS011;66672;50.328;7.610;2023-05-15T08:15:23;43.13;;;23.80;;
77544;SDS011;66672;50.328;7.610;2023-05-15T08:17:48;43.85;;;24.08;;
77544;SDS011;66672;50.328;7.610;2023-05-15T08:20:14;41.80;;;23.92;;
77544;SDS011;66672;50.328;7.610;2023-05-15T08:22:39;39.92;;;22.83;;
77544;SDS011;66672;50.328;7.610;2023-05-15T08:25:04;42.03;;;23.75;;
77544;SDS011;66672;50.328;7.610;2023-05-15T08:27:31;39.20;;;23.50;;
77544;SDS011;66672;50.328;7.610;2023-05-15T08:29:56;40.35;;;23.83;;
77544;SDS011;66672;50.328;7.610;2023-05-15T08:32:21;40.97;;;24.05;;
77544;SDS011;66672;50.328;7.610;2023-05-15T08:34:50;40.97;;;23.13;;
77544;SDS011;66672;50.328;7.610;2023-05-15T08:37:15;43.85;;;23.55;;
77544;SDS011;66672;50.328;7.610;2023-05-15T08:39:40;38.75;;;24.15;;
77544;SDS011;66672;50.328;7.610;2023-05-15T08:44:31;48.06;;;26.96;;
77544;SDS011;66672;50.328;7.610;2023-05-15T08:46:57;50.13;;;25.98;;
77544;SDS011;66672;50.328;7.610;2023-05-15T08:49:26;46.92;;;26.10;;
77544;SDS011;66672;50.328;7.610;2023-05-15T08:51:53;46.88;;;27.17;;
77544;SDS011;66672;50.328;7.610;2023-05-15T08:54:19;47.75;;;26.08;;
77544;SDS011;66672;50.328;7.610;2023-05-15T08:56:44;46.83;;;27.08;;
77544;SDS011;66672;50.328;7.610;2023-05-15T08:59:10;44.75;;;26.27;;
77544;SDS011;66672;50.328;7.610;2023-05-15T09:01:35;44.85;;;26.30;;
77544;SDS011;66672;50.328;7.610;2023-05-15T09:04:00;48.58;;;26.75;;
77544;SDS011;66672;50.328;7.610;2023-05-15T09:06:26;45.60;;;27.38;;
77544;SDS011;66672;50.328;7.610;2023-05-15T09:08:52;44.63;;;25.52;;
77544;SDS011;66672;50.328;7.610;2023-05-15T09:11:20;48.70;;;27.90;;
77544;SDS011;66672;50.328;7.610;2023-05-15T09:13:46;47.95;;;27.92;;
77544;SDS011;66672;50.328;7.610;2023-05-15T09:16:11;49.72;;;27.60;;
77544;SDS011;66672;50.328;7.610;2023-05-15T09:18:36;46.78;;;27.08;;
77544;SDS011;66672;50.328;7.610;2023-05-15T09:23:46;46.00;;;26.55;;
77544;SDS011;66672;50.328;7.610;2023-05-15T09:26:12;49.42;;;27.80;;
77544;SDS011;66672;50.328;7.610;2023-05-15T09:28:37;46.42;;;26.30;;
77544;SDS011;66672;50.328;7.610;2023-05-15T09:31:03;48.83;;;28.27;;
77544;SDS011;66672;50.328;7.610;2023-05-15T09:33:34;47.42;;;28.55;;
77544;SDS011;66672;50.328;7.610;2023-05-15T09:36:00;46.55;;;28.35;;
77544;SDS011;66672;50.328;7.610;2023-05-15T09:38:25;45.05;;;28.15;;
77544;SDS011;66672;50.328;7.610;2023-05-15T09:40:59;49.33;;;28.48;;
77544;SDS011;66672;50.328;7.610;2023-05-15T09:43:26;49.50;;;29.63;;
77544;SDS011;66672;50.328;7.610;2023-05-15T09:45:52;47.15;;;28.20;;
77544;SDS011;66672;50.328;7.610;2023-05-15T09:48:17;46.67;;;28.88;;
77544;SDS011;66672;50.328;7.610;2023-05-15T09:50:42;44.08;;;26.90;;
77544;SDS011;66672;50.328;7.610;2023-05-15T09:53:09;42.60;;;27.10;;
77544;SDS011;66672;50.328;7.610;2023-05-15T09:55:35;40.90;;;25.42;;
77544;SDS011;66672;50.328;7.610;2023-05-15T09:58:07;45.25;;;26.52;;
77544;SDS011;66672;50.328;7.610;2023-05-15T10:00:34;44.85;;;25.90;;
77544;SDS011;66672;50.328;7.610;2023-05-15T10:03:00;43.35;;;26.75;;
77544;SDS011;66672;50.328;7.610;2023-05-15T10:05:26;38.88;;;24.63;;
77544;SDS011;66672;50.328;7.610;2023-05-15T10:07:54;43.38;;;26.35;;
77544;SDS011;66672;50.328;7.610;2023-05-15T10:10:20;42.92;;;26.67;;
77544;SDS011;66672;50.328;7.610;2023-05-15T10:12:45;41.92;;;26.25;;
77544;SDS011;66672;50.328;7.610;2023-05-15T10:15:11;42.83;;;26.38;;
77544;SDS011;66672;50.328;7.610;2023-05-15T10:17:37;38.00;;;24.80;;
77544;SDS011;66672;50.328;7.610;2023-05-15T10:20:03;45.03;;;24.48;;
77544;SDS011;66672;50.328;7.610;2023-05-15T10:22:31;40.03;;;24.67;;
77544;SDS011;66672;50.328;7.610;2023-05-15T10:27:45;40.58;;;25.08;;
77544;SDS011;66672;50.328;7.610;2023-05-15T10:30:11;39.63;;;24.70;;
77544;SDS011;66672;50.328;7.610;2023-05-15T10:32:36;39.35;;;25.90;;
77544;SDS011;66672;50.328;7.610;2023-05-15T10:35:03;36.15;;;23.13;;
77544;SDS011;66672;50.328;7.610;2023-05-15T10:37:29;41.38;;;24.95;;
77544;SDS011;66672;50.328;7.610;2023-05-15T10:39:54;43.20;;;24.65;;
77544;SDS011;66672;50.328;7.610;2023-05-15T10:42:21;39.47;;;24.52;;
77544;SDS011;66672;50.328;7.610;2023-05-15T10:44:47;43.72;;;24.67;;
77544;SDS011;66672;50.328;7.610;2023-05-15T10:47:12;38.13;;;23.52;;
77544;SDS011;66672;50.328;7.610;2023-05-15T10:49:38;41.05;;;23.85;;
77544;SDS011;66672;50.328;7.610;2023-05-15T10:52:03;39.63;;;22.02;;
77544;SDS011;66672;50.328;7.610;2023-05-15T10:54:28;39.72;;;26.33;;
77544;SDS011;66672;50.328;7.610;2023-05-15T10:56:54;41.00;;;24.45;;
77544;SDS011;66672;50.328;7.610;2023-05-15T10:59:20;43.65;;;25.98;;
77544;SDS011;66672;50.328;7.610;2023-05-15T11:01:45;39.13;;;24.90;;
77544;SDS011;66672;50.328;7.610;2023-05-15T11:04:14;39.00;;;22.88;;
77544;SDS011;66672;50.328;7.610;2023-05-15T11:06:41;35.67;;;23.83;;
77544;SDS011;66672;50.328;7.610;2023-05-15T11:14:15;47.67;;;24.50;;
77544;SDS011;66672;50.328;7.610;2023-05-15T11:19:21;41.58;;;24.13;;
77544;SDS011;66672;50.328;7.610;2023-05-15T11:21:47;36.28;;;21.60;;
77544;SDS011;66672;50.328;7.610;2023-05-15T11:24:12;36.35;;;22.20;;
77544;SDS011;66672;50.328;7.610;2023-05-15T11:26:40;35.45;;;21.13;;
77544;SDS011;66672;50.328;7.610;2023-05-15T11:29:16;35.30;;;23.52;;
77544;SDS011;66672;50.328;7.610;2023-05-15T11:31:41;33.40;;;22.25;;
77544;SDS011;66672;50.328;7.610;2023-05-15T11:34:07;34.75;;;21.08;;
77544;SDS011;66672;50.328;7.610;2023-05-15T11:36:32;32.22;;;21.27;;
77544;SDS011;66672;50.328;7.610;2023-05-15T11:38:57;36.00;;;22.15;;
77544;SDS011;66672;50.328;7.610;2023-05-15T11:41:23;32.45;;;19.80;;
77544;SDS011;66672;50.328;7.610;2023-05-15T11:43:55;29.70;;;19.05;;
77544;SDS011;66672;50.328;7.610;2023-05-15T11:46:21;29.33;;;19.92;;
77544;SDS011;66672;50.328;7.610;2023-05-15T11:48:46;27.05;;;17.92;;
77544;SDS011;66672;50.328;7.610;2023-05-15T11:51:16;28.70;;;19.90;;
77544;SDS011;66672;50.328;7.610;2023-05-15T11:53:42;28.50;;;17.40;;
77544;SDS011;66672;50.328;7.610;2023-05-15T11:56:11;28.38;;;18.58;;
77544;SDS011;66672;50.328;7.610;2023-05-15T11:58:37;29.27;;;19.30;;
77544;SDS011;66672;50.328;7.610;2023-05-15T12:01:02;28.25;;;19.90;;
77544;SDS011;66672;50.328;7.610;2023-05-15T12:03:33;27.48;;;18.00;;
77544;SDS011;66672;50.328;7.610;2023-05-15T12:06:00;28.27;;;18.87;;
77544;SDS011;66672;50.328;7.610;2023-05-15T12:08:35;27.20;;;19.00;;
77544;SDS011;66672;50.328;7.610;2023-05-15T12:11:01;22.80;;;15.45;;
77544;SDS011;66672;50.328;7.610;2023-05-15T12:13:27;21.23;;;13.75;;
77544;SDS011;66672;50.328;7.610;2023-05-15T12:15:54;24.95;;;17.73;;
77544;SDS011;66672;50.328;7.610;2023-05-15T12:18:19;28.40;;;18.67;;
77544;SDS011;66672;50.328;7.610;2023-05-15T12:20:44;27.52;;;17.80;;
77544;SDS011;66672;50.328;7.610;2023-05-15T12:23:13;25.27;;;16.48;;
77544;SDS011;66672;50.328;7.610;2023-05-15T12:25:38;28.17;;;17.70;;
77544;SDS011;66672;50.328;7.610;2023-05-15T12:28:04;28.20;;;18.30;;
77544;SDS011;66672;50.328;7.610;2023-05-15T12:30:29;27.85;;;17.70;;
77544;SDS011;66672;50.328;7.610;2023-05-15T12:33:05;26.15;;;17.23;;
77544;SDS011;66672;50.328;7.610;2023-05-15T12:35:33;26.75;;;18.02;;
77544;SDS011;66672;50.328;7.610;2023-05-15T12:38:03;25.83;;;17.98;;
77544;SDS011;66672;50.328;7.610;2023-05-15T12:40:28;26.33;;;16.08;;
77544;SDS011;66672;50.328;7.610;2023-05-15T12:42:57;25.25;;;16.17;;
77544;SDS011;66672;50.328;7.610;2023-05-15T12:45:22;27.77;;;17.15;;
77544;SDS011;66672;50.328;7.610;2023-05-15T12:47:48;25.88;;;18.15;;
77544;SDS011;66672;50.328;7.610;2023-05-15T12:50:17;27.38;;;16.80;;
77544;SDS011;66672;50.328;7.610;2023-05-15T12:55:14;23.58;;;16.05;;
77544;SDS011;66672;50.328;7.610;2023-05-15T12:57:40;21.58;;;15.60;;
77544;SDS011;66672;50.328;7.610;2023-05-15T13:00:08;19.70;;;14.98;;
77544;SDS011;66672;50.328;7.610;2023-05-15T13:02:34;18.15;;;12.93;;
77544;SDS011;66672;50.328;7.610;2023-05-15T13:05:00;18.25;;;13.85;;
77544;SDS011;66672;50.328;7.610;2023-05-15T13:07:25;23.55;;;14.45;;
77544;SDS011;66672;50.328;7.610;2023-05-15T13:10:05;21.50;;;13.02;;
77544;SDS011;66672;50.328;7.610;2023-05-15T13:12:44;17.88;;;11.85;;
77544;SDS011;66672;50.328;7.610;2023-05-15T13:15:27;19.13;;;14.32;;
77544;SDS011;66672;50.328;7.610;2023-05-15T13:20:28;15.48;;;12.25;;
77544;SDS011;66672;50.328;7.610;2023-05-15T13:22:53;17.52;;;11.48;;
77544;SDS011;66672;50.328;7.610;2023-05-15T13:25:19;17.02;;;12.43;;
77544;SDS011;66672;50.328;7.610;2023-05-15T13:27:45;15.70;;;12.40;;
77544;SDS011;66672;50.328;7.610;2023-05-15T13:30:11;15.90;;;12.02;;
77544;SDS011;66672;50.328;7.610;2023-05-15T13:32:36;21.13;;;12.70;;
77544;SDS011;66672;50.328;7.610;2023-05-15T13:35:02;17.13;;;12.23;;
77544;SDS011;66672;50.328;7.610;2023-05-15T13:37:27;17.05;;;12.93;;
77544;SDS011;66672;50.328;7.610;2023-05-15T13:39:52;16.90;;;11.93;;
77544;SDS011;66672;50.328;7.610;2023-05-15T13:42:17;15.68;;;11.90;;
77544;SDS011;66672;50.328;7.610;2023-05-15T13:44:42;16.92;;;11.18;;
77544;SDS011;66672;50.328;7.610;2023-05-15T13:47:08;17.85;;;12.60;;
77544;SDS011;66672;50.328;7.610;2023-05-15T13:49:33;16.70;;;11.98;;
77544;SDS011;66672;50.328;7.610;2023-05-15T13:51:58;15.68;;;10.23;;
77544;SDS011;66672;50.328;7.610;2023-05-15T13:54:23;15.15;;;11.68;;
77544;SDS011;66672;50.328;7.610;2023-05-15T13:56:48;16.38;;;11.68;;
77544;SDS011;66672;50.328;7.610;2023-05-15T13:59:14;16.17;;;11.88;;
77544;SDS011;66672;50.328;7.610;2023-05-15T14:01:39;18.27;;;12.57;;
77544;SDS011;66672;50.328;7.610;2023-05-15T14:04:04;19.98;;;13.70;;
77544;SDS011;66672;50.328;7.610;2023-05-15T14:06:29;18.55;;;13.27;;
77544;SDS011;66672;50.328;7.610;2023-05-15T14:08:55;13.88;;;11.35;;
77544;SDS011;66672;50.328;7.610;2023-05-15T14:11:20;15.80;;;11.18;;
77544;SDS011;66672;50.328;7.610;2023-05-15T14:13:46;13.43;;;11.27;;
77544;SDS011;66672;50.328;7.610;2023-05-15T14:16:12;14.38;;;11.88;;
77544;SDS011;66672;50.328;7.610;2023-05-15T14:18:37;16.42;;;10.90;;
77544;SDS011;66672;50.328;7.610;2023-05-15T14:21:02;14.80;;;11.00;;
77544;SDS011;66672;50.328;7.610;2023-05-15T14:23:27;16.58;;;9.98;;
77544;SDS011;66672;50.328;7.610;2023-05-15T14:25:52;12.30;;;9.88;;
77544;SDS011;66672;50.328;7.610;2023-05-15T14:28:17;14.43;;;10.10;;
77544;SDS011;66672;50.328;7.610;2023-05-15T14:30:43;12.50;;;8.82;;
77544;SDS011;66672;50.328;7.610;2023-05-15T14:33:08;11.52;;;8.50;;
77544;SDS011;66672;50.328;7.610;2023-05-15T14:35:33;11.50;;;8.95;;
77544;SDS011;66672;50.328;7.610;2023-05-15T14:37:58;12.25;;;9.38;;
77544;SDS011;66672;50.328;7.610;2023-05-15T14:40:23;14.18;;;9.68;;
77544;SDS011;66672;50.328;7.610;2023-05-15T14:42:49;13.50;;;8.50;;
77544;SDS011;66672;50.328;7.610;2023-05-15T14:45:14;12.82;;;8.50;;
77544;SDS011;66672;50.328;7.610;2023-05-15T14:47:39;12.35;;;8.82;;
77544;SDS011;66672;50.328;7.610;2023-05-15T14:50:05;12.45;;;8.63;;
77544;SDS011;66672;50.328;7.610;2023-05-15T14:52:30;14.40;;;8.32;;